createdAt,value
2022-10-08T00:01:29.567Z,8.93
2022-10-08T00:03:57.551Z,8.65
2022-10-08T00:06:32.298Z,10.95
2022-10-08T00:09:06.451Z,10.10
2022-10-08T00:11:40.223Z,8.55
2022-10-08T00:14:09.450Z,8.95
2022-10-08T00:16:41.859Z,8.88
2022-10-08T00:19:15.394Z,9.95
2022-10-08T00:21:45.839Z,9.35
2022-10-08T00:24:19.043Z,9.52
2022-10-08T00:26:46.516Z,9.70
2022-10-08T00:29:20.008Z,10.10
2022-10-08T00:31:50.611Z,9.73
2022-10-08T00:34:23.449Z,8.82
2022-10-08T00:36:55.743Z,9.63
2022-10-08T00:39:25.305Z,9.02
2022-10-08T00:41:56.438Z,9.67
2022-10-08T00:44:56.368Z,8.50
2022-10-08T00:47:49.129Z,11.02
2022-10-08T00:50:34.407Z,9.57
2022-10-08T00:53:07.859Z,10.00
2022-10-08T00:55:43.925Z,9.13
2022-10-08T00:58:23.366Z,10.25
2022-10-08T01:00:51.039Z,9.02
2022-10-08T01:03:18.559Z,9.23
2022-10-08T01:06:22.796Z,9.00
2022-10-08T01:09:18.669Z,8.45
2022-10-08T01:12:37.201Z,9.90
2022-10-08T01:16:11.800Z,8.23
2022-10-08T01:19:20.351Z,9.50
2022-10-08T01:22:43.168Z,8.00
2022-10-08T01:25:37.730Z,8.90
2022-10-08T01:29:16.972Z,9.05
2022-10-08T01:32:07.147Z,8.57
2022-10-08T01:34:54.767Z,9.25
2022-10-08T01:37:34.421Z,9.30
2022-10-08T01:40:09.528Z,8.33
2022-10-08T01:42:41.904Z,8.75
2022-10-08T01:45:19.872Z,9.15
2022-10-08T01:47:49.465Z,9.27
2022-10-08T01:50:34.766Z,9.20
2022-10-08T01:53:12.413Z,8.88
2022-10-08T01:55:48.187Z,8.48
2022-10-08T01:58:36.465Z,9.00
2022-10-08T02:01:22.212Z,9.23
2022-10-08T02:04:08.155Z,9.73
2022-10-08T02:06:39.169Z,8.30
2022-10-08T02:09:06.431Z,8.73
2022-10-08T02:11:35.805Z,8.32
2022-10-08T02:14:05.589Z,9.05
2022-10-08T02:16:37.510Z,9.45
2022-10-08T02:19:28.925Z,9.57
2022-10-08T02:22:00.347Z,9.52
2022-10-08T02:24:44.322Z,9.85
2022-10-08T02:27:13.471Z,11.43
2022-10-08T02:30:10.225Z,11.20
2022-10-08T02:33:05.384Z,10.45
2022-10-08T02:35:49.175Z,9.82
2022-10-08T02:38:40.610Z,10.32
2022-10-08T02:41:11.333Z,11.32
2022-10-08T02:43:48.608Z,11.50
2022-10-08T02:46:27.418Z,10.88
2022-10-08T02:49:26.077Z,9.50
2022-10-08T02:51:55.178Z,10.52
2022-10-08T02:54:24.186Z,9.18
2022-10-08T02:57:32.004Z,9.27
2022-10-08T02:59:59.530Z,10.75
2022-10-08T03:02:56.591Z,10.70
2022-10-08T03:05:24.585Z,10.38
2022-10-08T03:07:54.733Z,9.43
2022-10-08T03:10:25.917Z,10.77
2022-10-08T03:13:02.089Z,10.27
2022-10-08T03:15:33.284Z,10.55
2022-10-08T03:18:07.661Z,10.45
2022-10-08T03:20:49.456Z,9.13
2022-10-08T03:23:19.031Z,10.98
2022-10-08T03:25:46.607Z,10.47
2022-10-08T03:28:14.712Z,10.23
2022-10-08T03:30:42.098Z,10.82
2022-10-08T03:33:09.399Z,11.23
2022-10-08T03:35:46.796Z,10.98
2022-10-08T03:38:16.148Z,12.20
2022-10-08T03:40:53.968Z,11.05
2022-10-08T03:43:21.734Z,11.52
2022-10-08T03:45:55.328Z,10.75
2022-10-08T03:48:23.833Z,11.57
2022-10-08T03:51:12.792Z,11.00
2022-10-08T03:53:42.917Z,12.43
2022-10-08T03:56:17.984Z,11.73
2022-10-08T03:58:54.382Z,11.43
2022-10-08T04:01:23.424Z,12.40
2022-10-08T04:03:50.835Z,11.38
2022-10-08T04:06:18.139Z,11.55
2022-10-08T04:08:46.428Z,11.88
2022-10-08T04:11:20.150Z,12.05
2022-10-08T04:13:47.664Z,10.75
2022-10-08T04:16:18.718Z,11.80
2022-10-08T04:18:48.580Z,11.93
2022-10-08T04:21:19.405Z,11.15
2022-10-08T04:23:50.879Z,12.57
2022-10-08T04:26:18.241Z,12.30
2022-10-08T04:28:46.273Z,12.15
2022-10-08T04:31:21.608Z,10.45
2022-10-08T04:33:51.587Z,11.70
2022-10-08T04:36:24.674Z,11.00
2022-10-08T04:38:52.529Z,11.15
2022-10-08T04:41:28.122Z,10.57
2022-10-08T04:44:03.256Z,12.13
2022-10-08T04:46:30.560Z,10.77
2022-10-08T04:48:58.305Z,11.88
2022-10-08T04:51:27.552Z,10.95
2022-10-08T04:53:58.044Z,10.65
2022-10-08T04:58:59.909Z,9.13
2022-10-08T05:01:29.844Z,8.25
2022-10-08T05:04:00.966Z,8.23
2022-10-08T05:06:31.861Z,8.82
2022-10-08T05:09:05.063Z,8.52
2022-10-08T05:11:33.612Z,8.27
2022-10-08T05:14:01.568Z,9.13
2022-10-08T05:16:29.810Z,7.78
2022-10-08T05:18:58.061Z,7.50
2022-10-08T05:21:29.994Z,8.27
2022-10-08T05:24:05.387Z,7.90
2022-10-08T05:29:30.149Z,9.23
2022-10-08T05:31:57.833Z,9.32
2022-10-08T05:34:25.240Z,8.82
2022-10-08T05:36:53.729Z,10.23
2022-10-08T05:39:22.628Z,10.55
2022-10-08T05:41:49.980Z,10.55
2022-10-08T05:44:17.363Z,10.13
2022-10-08T05:46:44.776Z,10.10
2022-10-08T05:49:22.221Z,10.02
2022-10-08T05:51:51.087Z,8.73
2022-10-08T05:54:20.210Z,9.93
2022-10-08T05:56:47.828Z,10.80
2022-10-08T05:59:24.181Z,10.60
2022-10-08T06:01:52.219Z,11.20
2022-10-08T06:04:19.917Z,10.73
2022-10-08T06:06:47.494Z,10.07
2022-10-08T06:09:20.384Z,9.55
2022-10-08T06:11:49.316Z,10.05
2022-10-08T06:14:17.766Z,9.60
2022-10-08T06:16:45.128Z,8.57
2022-10-08T06:19:12.574Z,9.52
2022-10-08T06:21:39.832Z,9.77
2022-10-08T06:24:11.645Z,9.27
2022-10-08T06:26:44.177Z,8.55
2022-10-08T06:29:18.731Z,8.55
2022-10-08T06:31:46.690Z,9.02
2022-10-08T06:34:15.052Z,8.40
2022-10-08T06:36:42.350Z,8.73
2022-10-08T06:39:15.547Z,8.88
2022-10-08T06:41:42.905Z,8.75
2022-10-08T06:44:14.695Z,7.72
2022-10-08T06:46:43.102Z,8.98
2022-10-08T06:49:12.155Z,9.82
2022-10-08T06:51:39.623Z,8.07
2022-10-08T06:54:08.520Z,8.02
2022-10-08T06:56:41.177Z,8.75
2022-10-08T06:59:08.805Z,8.73
2022-10-08T07:01:38.191Z,7.38
2022-10-08T07:04:06.897Z,8.18
2022-10-08T07:06:34.581Z,7.32
2022-10-08T07:09:03.332Z,7.72
2022-10-08T07:11:32.415Z,8.10
2022-10-08T07:14:00.723Z,7.13
2022-10-08T07:16:29.302Z,7.88
2022-10-08T07:18:58.611Z,6.68
2022-10-08T07:21:29.892Z,7.18
2022-10-08T07:24:01.534Z,7.43
2022-10-08T07:26:34.274Z,6.57
2022-10-08T07:29:11.645Z,5.70
2022-10-08T07:31:40.513Z,6.03
2022-10-08T07:34:13.339Z,6.47
2022-10-08T07:36:41.783Z,5.35
2022-10-08T07:39:15.625Z,5.28
2022-10-08T07:41:44.153Z,5.75
2022-10-08T07:44:12.972Z,5.80
2022-10-08T07:46:50.268Z,5.82
2022-10-08T07:49:19.429Z,5.85
2022-10-08T07:51:48.084Z,5.93
2022-10-08T07:54:19.662Z,6.65
2022-10-08T07:56:47.534Z,5.80
2022-10-08T07:59:16.064Z,6.20
2022-10-08T08:01:44.217Z,6.00
2022-10-08T08:04:12.204Z,5.30
2022-10-08T08:06:51.060Z,6.13
2022-10-08T08:09:19.065Z,6.38
2022-10-08T08:11:48.224Z,6.70
2022-10-08T08:14:15.673Z,6.22
2022-10-08T08:16:43.064Z,5.88
2022-10-08T08:19:10.536Z,6.32
2022-10-08T08:21:39.554Z,6.28
2022-10-08T08:24:12.228Z,6.38
2022-10-08T08:26:43.905Z,5.85
2022-10-08T08:29:18.494Z,6.05
2022-10-08T08:31:50.269Z,6.28
2022-10-08T08:34:24.394Z,5.45
2022-10-08T08:36:53.820Z,5.50
2022-10-08T08:39:28.177Z,5.22
2022-10-08T08:42:42.568Z,4.75
2022-10-08T08:45:46.416Z,5.45
2022-10-08T08:48:28.968Z,5.80
2022-10-08T08:50:59.453Z,4.78
2022-10-08T08:56:00.040Z,4.65
2022-10-08T08:59:03.785Z,4.53
2022-10-08T09:01:42.774Z,4.72
2022-10-08T09:04:47.157Z,3.88
2022-10-08T09:07:24.992Z,3.78
2022-10-08T09:09:58.694Z,3.60
2022-10-08T09:12:44.817Z,4.43
2022-10-08T09:15:37.479Z,3.50
2022-10-08T09:18:05.632Z,2.92
2022-10-08T09:20:39.324Z,3.50
2022-10-08T09:23:22.224Z,3.13
2022-10-08T09:26:22.001Z,3.38
2022-10-08T09:28:58.003Z,3.33
2022-10-08T09:31:25.479Z,4.57
2022-10-08T09:34:19.770Z,2.85
2022-10-08T09:37:01.787Z,3.42
2022-10-08T09:39:37.441Z,3.33
2022-10-08T09:42:08.525Z,2.65
2022-10-08T09:44:56.676Z,2.83
2022-10-08T09:47:27.002Z,2.95
2022-10-08T09:50:19.822Z,2.75
2022-10-08T09:53:00.084Z,2.63
2022-10-08T09:55:35.280Z,2.85
2022-10-08T09:58:04.157Z,2.28
2022-10-08T10:00:40.940Z,2.17
2022-10-08T10:03:26.637Z,2.67
2022-10-08T10:05:57.147Z,2.50
2022-10-08T10:09:02.755Z,3.10
2022-10-08T10:11:48.600Z,3.53
2022-10-08T10:14:53.962Z,2.92
2022-10-08T10:17:59.821Z,2.72
2022-10-08T10:20:58.652Z,2.40
2022-10-08T10:23:40.010Z,3.10
2022-10-08T10:26:21.816Z,3.13
2022-10-08T10:29:10.457Z,2.45
2022-10-08T10:31:48.247Z,3.47
2022-10-08T10:34:30.033Z,3.05
2022-10-08T10:37:09.992Z,3.05
2022-10-08T10:40:27.675Z,3.25
2022-10-08T10:43:16.437Z,2.60
2022-10-08T10:45:58.261Z,3.25
2022-10-08T10:48:25.858Z,2.95
2022-10-08T10:51:57.515Z,2.72
2022-10-08T10:55:27.733Z,2.50
2022-10-08T10:58:29.975Z,3.45
2022-10-08T11:01:12.362Z,2.85
2022-10-08T11:04:15.273Z,3.22
2022-10-08T11:08:03.435Z,2.75
2022-10-08T11:11:33.813Z,2.40
2022-10-08T11:16:01.255Z,2.17
2022-10-08T11:18:56.133Z,2.78
2022-10-08T11:22:20.785Z,1.80
2022-10-08T11:26:16.531Z,1.95
2022-10-08T11:29:22.475Z,1.42
2022-10-08T11:31:53.201Z,1.90
2022-10-08T11:34:37.373Z,2.65
2022-10-08T11:37:41.174Z,2.28
2022-10-08T11:40:42.051Z,1.88
2022-10-08T11:43:37.519Z,1.80
2022-10-08T11:46:36.673Z,1.80
2022-10-08T11:49:25.285Z,2.15
2022-10-08T11:51:55.743Z,1.50
2022-10-08T11:58:07.157Z,2.13
2022-10-08T12:00:46.051Z,2.92
2022-10-08T12:03:37.173Z,1.80
2022-10-08T12:06:26.726Z,1.73
2022-10-08T12:09:07.572Z,1.80
2022-10-08T12:11:37.643Z,2.22
2022-10-08T12:14:14.419Z,2.28
2022-10-08T12:16:47.734Z,1.80
2022-10-08T12:19:33.240Z,2.17
2022-10-08T12:22:17.244Z,1.58
2022-10-08T12:24:49.735Z,2.03
2022-10-08T12:27:18.099Z,2.00
2022-10-08T12:30:10.568Z,1.80
2022-10-08T12:32:43.364Z,1.35
2022-10-08T12:35:37.124Z,1.77
2022-10-08T12:38:16.290Z,1.75
2022-10-08T12:41:10.296Z,2.40
2022-10-08T12:44:28.476Z,1.75
2022-10-08T12:47:43.720Z,1.60
2022-10-08T12:50:49.760Z,1.63
2022-10-08T12:53:18.537Z,1.40
2022-10-08T12:55:58.207Z,1.17
2022-10-08T12:58:31.831Z,1.40
2022-10-08T13:01:05.398Z,1.60
2022-10-08T13:03:33.148Z,1.60
2022-10-08T13:06:30.523Z,1.30
2022-10-08T13:11:28.377Z,1.30
2022-10-08T13:13:55.630Z,1.42
2022-10-08T13:16:26.877Z,1.50
2022-10-08T13:18:58.725Z,1.42
2022-10-08T13:21:32.011Z,1.73
2022-10-08T13:24:12.475Z,1.60
2022-10-08T13:30:20.068Z,1.42
2022-10-08T13:32:47.451Z,1.25
2022-10-08T13:35:24.341Z,1.40
2022-10-08T13:37:54.052Z,1.40
2022-10-08T13:40:23.895Z,1.98
2022-10-08T13:42:58.819Z,1.60
2022-10-08T13:45:39.348Z,1.35
2022-10-08T13:48:14.737Z,1.90
2022-10-08T13:50:50.290Z,1.23
2022-10-08T13:53:25.944Z,1.20
2022-10-08T13:55:54.074Z,1.70
2022-10-08T13:58:21.604Z,2.05
2022-10-08T14:00:49.494Z,1.95
2022-10-08T14:03:17.916Z,1.20
2022-10-08T14:05:48.489Z,1.25
2022-10-08T14:08:29.588Z,1.33
2022-10-08T14:11:00.346Z,1.80
2022-10-08T14:13:29.683Z,2.17
2022-10-08T14:15:57.077Z,1.33
2022-10-08T14:18:24.435Z,1.33
2022-10-08T14:20:52.234Z,1.48
2022-10-08T14:23:20.266Z,1.63
2022-10-08T14:25:47.564Z,1.40
2022-10-08T14:28:14.889Z,1.20
2022-10-08T14:30:42.192Z,1.40
2022-10-08T14:33:11.578Z,1.50
2022-10-08T14:35:40.726Z,1.80
2022-10-08T14:38:08.789Z,2.22
2022-10-08T14:40:36.574Z,1.90
2022-10-08T14:43:03.942Z,1.95
2022-10-08T14:45:33.694Z,1.70
2022-10-08T14:48:01.008Z,2.20
2022-10-08T14:50:28.328Z,1.98
2022-10-08T14:52:55.595Z,1.50
2022-10-08T14:55:22.852Z,1.70
2022-10-08T14:57:50.637Z,1.60
2022-10-08T15:00:17.937Z,1.65
2022-10-08T15:02:45.604Z,1.63
2022-10-08T15:05:12.977Z,2.40
2022-10-08T15:07:40.231Z,1.98
2022-10-08T15:10:08.754Z,2.80
2022-10-08T15:12:36.135Z,2.20
2022-10-08T15:15:04.248Z,2.78
2022-10-08T15:17:31.633Z,2.28
2022-10-08T15:19:59.601Z,2.40
2022-10-08T15:22:26.848Z,2.05
2022-10-08T15:24:54.113Z,2.35
2022-10-08T15:27:21.469Z,2.45
2022-10-08T15:29:48.726Z,2.17
2022-10-08T15:32:16.009Z,2.35
2022-10-08T15:34:43.267Z,2.03
2022-10-08T15:37:10.529Z,2.75
2022-10-08T15:39:38.191Z,2.65
2022-10-08T15:42:05.521Z,2.25
2022-10-08T15:44:33.072Z,2.28
2022-10-08T15:47:12.095Z,2.03
2022-10-08T15:49:43.382Z,2.15
2022-10-08T15:52:20.689Z,2.20
2022-10-08T15:54:48.425Z,1.80
2022-10-08T15:57:18.369Z,2.20
2022-10-08T15:59:46.500Z,2.75
2022-10-08T16:02:17.449Z,1.90
2022-10-08T16:04:47.792Z,2.28
2022-10-08T16:07:16.451Z,2.05
2022-10-08T16:09:43.801Z,1.90
2022-10-08T16:12:11.429Z,2.15
2022-10-08T16:14:38.698Z,2.05
2022-10-08T16:17:06.039Z,1.83
2022-10-08T16:19:33.331Z,2.45
2022-10-08T16:22:01.291Z,2.05
2022-10-08T16:24:28.778Z,2.42
2022-10-08T16:26:56.228Z,2.97
2022-10-08T16:29:23.493Z,2.35
2022-10-08T16:31:50.888Z,2.17
2022-10-08T16:34:24.651Z,2.40
2022-10-08T16:36:52.108Z,2.30
2022-10-08T16:39:24.193Z,2.40
2022-10-08T16:41:52.216Z,2.22
2022-10-08T16:44:21.509Z,3.20
2022-10-08T16:46:52.607Z,2.50
2022-10-08T16:49:29.960Z,2.88
2022-10-08T16:52:04.680Z,2.58
2022-10-08T16:54:32.895Z,2.55
2022-10-08T16:57:00.422Z,2.78
2022-10-08T16:59:30.168Z,2.67
2022-10-08T17:02:00.387Z,2.60
2022-10-08T17:04:29.739Z,2.90
2022-10-08T17:06:57.033Z,2.75
2022-10-08T17:09:24.320Z,2.65
2022-10-08T17:11:53.355Z,3.47
2022-10-08T17:14:20.782Z,3.05
2022-10-08T17:16:49.903Z,2.20
2022-10-08T17:19:17.692Z,2.58
2022-10-08T17:21:45.233Z,2.55
2022-10-08T17:24:13.196Z,3.15
2022-10-08T17:26:41.930Z,2.67
2022-10-08T17:29:12.772Z,3.05
2022-10-08T17:31:41.020Z,2.90
2022-10-08T17:34:09.639Z,4.22
2022-10-08T17:36:41.563Z,2.80
2022-10-08T17:39:14.251Z,2.95
2022-10-08T17:41:43.349Z,3.25
2022-10-08T17:44:12.046Z,3.30
2022-10-08T17:46:47.769Z,3.28
2022-10-08T17:49:19.410Z,3.40
2022-10-08T17:51:47.940Z,3.55
2022-10-08T17:54:19.829Z,3.30
2022-10-08T17:56:48.697Z,3.35
2022-10-08T17:59:23.813Z,3.10
2022-10-08T18:01:51.438Z,3.50
2022-10-08T18:04:20.460Z,3.42
2022-10-08T18:06:48.792Z,4.60
2022-10-08T18:09:22.507Z,4.25
2022-10-08T18:11:53.348Z,4.22
2022-10-08T18:14:23.369Z,3.63
2022-10-08T18:16:51.798Z,4.40
2022-10-08T18:19:19.741Z,3.63
2022-10-08T18:21:47.434Z,4.10
2022-10-08T18:24:16.881Z,4.22
2022-10-08T18:26:44.534Z,4.03
2022-10-08T18:29:14.887Z,4.80
2022-10-08T18:31:44.528Z,6.72
2022-10-08T18:34:18.957Z,6.60
2022-10-08T18:36:46.989Z,4.88
2022-10-08T18:39:23.701Z,4.72
2022-10-08T18:41:55.672Z,5.00
2022-10-08T18:44:25.668Z,4.88
2022-10-08T18:46:53.719Z,4.13
2022-10-08T18:49:30.538Z,5.63
2022-10-08T18:51:58.893Z,5.75
2022-10-08T18:54:26.253Z,5.50
2022-10-08T18:56:55.621Z,6.15
2022-10-08T18:59:23.482Z,5.60
2022-10-08T19:01:50.988Z,5.65
2022-10-08T19:04:23.007Z,5.55
2022-10-08T19:06:55.570Z,5.45
2022-10-08T19:09:23.177Z,5.38
2022-10-08T19:11:54.444Z,5.28
2022-10-08T19:14:24.707Z,5.18
2022-10-08T19:16:52.478Z,5.72
2022-10-08T19:19:27.488Z,5.97
2022-10-08T19:21:55.718Z,5.93
2022-10-08T19:24:26.077Z,5.75
2022-10-08T19:26:55.176Z,4.60
2022-10-08T19:29:29.326Z,6.10
2022-10-08T19:31:57.216Z,4.93
2022-10-08T19:34:27.746Z,4.43
2022-10-08T19:39:29.015Z,5.78
2022-10-08T19:41:56.626Z,5.20
2022-10-08T19:44:23.985Z,6.63
2022-10-08T19:46:52.203Z,5.50
2022-10-08T19:49:21.230Z,4.93
2022-10-08T19:51:48.563Z,5.47
2022-10-08T19:54:17.151Z,4.22
2022-10-08T19:56:44.468Z,4.97
2022-10-08T19:59:13.132Z,4.88
2022-10-08T20:01:42.968Z,4.18
2022-10-08T20:04:11.727Z,4.55
2022-10-08T20:06:41.888Z,4.25
2022-10-08T20:09:13.448Z,4.60
2022-10-08T20:11:44.696Z,3.90
2022-10-08T20:14:14.507Z,4.13
2022-10-08T20:16:43.476Z,4.05
2022-10-08T20:19:22.571Z,3.88
2022-10-08T20:21:53.524Z,3.88
2022-10-08T20:24:22.066Z,4.30
2022-10-08T20:26:50.100Z,3.90
2022-10-08T20:29:25.233Z,3.63
2022-10-08T20:31:56.235Z,3.80
2022-10-08T20:34:28.735Z,3.85
2022-10-08T20:36:57.917Z,5.25
2022-10-08T20:39:25.417Z,5.18
2022-10-08T20:41:52.775Z,4.70
2022-10-08T20:44:20.654Z,4.43
2022-10-08T20:46:51.402Z,4.57
2022-10-08T20:49:19.344Z,5.68
2022-10-08T20:51:47.108Z,4.65
2022-10-08T20:54:17.251Z,4.38
2022-10-08T20:56:48.098Z,4.40
2022-10-08T20:59:18.496Z,3.70
2022-10-08T21:01:46.644Z,3.65
2022-10-08T21:04:14.112Z,3.65
2022-10-08T21:06:49.959Z,3.72
2022-10-08T21:09:21.597Z,3.17
2022-10-08T21:11:49.360Z,3.45
2022-10-08T21:14:22.437Z,2.85
2022-10-08T21:16:50.072Z,2.50
2022-10-08T21:19:23.001Z,2.60
2022-10-08T21:21:50.690Z,2.92
2022-10-08T21:24:18.102Z,3.55
2022-10-08T21:26:45.682Z,3.50
2022-10-08T21:29:14.511Z,3.50
2022-10-08T21:31:42.932Z,3.03
2022-10-08T21:34:13.268Z,3.75
2022-10-08T21:36:42.193Z,3.17
2022-10-08T21:39:16.727Z,2.67
2022-10-08T21:41:45.174Z,2.88
2022-10-08T21:44:13.337Z,3.22
2022-10-08T21:46:43.545Z,3.08
2022-10-08T21:49:20.655Z,2.72
2022-10-08T21:51:49.460Z,3.58
2022-10-08T21:54:17.559Z,4.05
2022-10-08T21:56:45.588Z,4.60
2022-10-08T21:59:16.650Z,4.10
2022-10-08T22:01:50.369Z,3.50
2022-10-08T22:04:23.540Z,3.58
2022-10-08T22:06:58.287Z,3.17
2022-10-08T22:09:34.474Z,3.10
2022-10-08T22:12:02.529Z,3.47
2022-10-08T22:14:30.032Z,3.40
2022-10-08T22:16:58.423Z,2.63
2022-10-08T22:19:25.732Z,2.80
2022-10-08T22:21:52.982Z,3.30
2022-10-08T22:24:20.306Z,3.55
2022-10-08T22:26:48.229Z,2.70
2022-10-08T22:29:16.261Z,3.10
2022-10-08T22:31:43.685Z,2.72
2022-10-08T22:34:11.600Z,2.55
2022-10-08T22:36:43.966Z,2.58
2022-10-08T22:39:11.774Z,3.03
2022-10-08T22:41:39.378Z,2.65
2022-10-08T22:44:06.656Z,2.92
2022-10-08T22:46:39.572Z,2.47
2022-10-08T22:49:11.084Z,3.38
2022-10-08T22:51:39.355Z,2.53
2022-10-08T22:54:07.035Z,2.70
2022-10-08T22:56:35.807Z,3.00
2022-10-08T22:59:03.409Z,3.13
2022-10-08T23:01:34.259Z,3.08
2022-10-08T23:04:01.615Z,2.50
2022-10-08T23:06:33.991Z,3.25
2022-10-08T23:09:11.668Z,2.70
2022-10-08T23:11:39.121Z,2.42
2022-10-08T23:14:06.803Z,3.40
2022-10-08T23:16:35.076Z,2.88
2022-10-08T23:19:08.396Z,2.85
2022-10-08T23:21:37.144Z,2.83
2022-10-08T23:24:05.664Z,2.95
2022-10-08T23:26:33.322Z,2.90
2022-10-08T23:29:01.837Z,2.50
2022-10-08T23:31:37.198Z,2.70
2022-10-08T23:34:08.541Z,2.97
2022-10-08T23:36:43.248Z,2.92
2022-10-08T23:39:16.667Z,3.40
2022-10-08T23:41:44.176Z,2.67
2022-10-08T23:44:12.422Z,2.38
2022-10-08T23:46:39.892Z,3.10
2022-10-08T23:49:07.356Z,2.80
2022-10-08T23:51:34.770Z,2.80
2022-10-08T23:54:02.401Z,2.85
2022-10-08T23:56:30.041Z,3.15
2022-10-08T23:58:58.545Z,3.03
